Aérodrome :
LOGIN :

S'inscrire | Disclaimer

   EN    FR    IT 

 










Légende :    VFR   VFR Marginal   IFR   IFR Intensif   IFR Très Intensif
Visi : 
Plafond : 
>= 8 km
>= 3000ft
5 à 8 km
1000 à 3000 ft
1500m à 5 km
500 à 1000 ft
800 à 1500m
200 à 500 ft
< 800m
< 200 ft
Symboles :   Orages  Brouillard  Fortes neiges  Fortes précipitations  Vent > 20 kt
SIGMETs :   Divers  Orages  Givrage  Turbulence  Onde Orograph.  Cendres Volcan.






- Altitude de l'aérodrome : 794 ft


LKCV - Čáslav Air Base

DERNIER METAR :
  • 031730Z 24004KT 9999 BKN024 OVC036 M03/M05 Q1023 NOSIG RMK WHT WHT

METARs EXPIRÉS :
  • 031700Z 21004KT 9999 OVC031 M03/M05 Q1023 NOSIG RMK BLU BLU
  • 031630Z 24007KT 9999 OVC024 M03/M05 Q1023 NOSIG RMK WHT WHT
  • 031600Z 23006KT 4000 -SN BR BKN020 OVC047 M03/M04 Q1022 NOSIG RMK GRN GRN
  • 031531Z 22006KT 3000 -SN BR BKN022 OVC038 M03/M05 Q1022 RMK YLO
  • 031500Z 23008KT 4000 -SN BR BKN026 BKN046 M02/M05 Q1022 NOSIG RMK GRN GRN
  • 031439Z 22008KT 5000 -SN BR BKN028 OVC040 M02/M05 Q1022 RMK WHT
  • 031400Z 22007KT 9999 BKN029 OVC050 M02/M05 Q1022 NOSIG RMK BLU BLU
  • 031330Z 23006KT 9999 BKN033 BKN090 M02/M05 Q1022 NOSIG RMK BLU BLU
  • 031300Z 24006KT 9999 FEW031 BKN050 M02/M06 Q1022 NOSIG RMK BLU BLU
  • 031230Z 25010KT 9999 BKN036 M02/M06 Q1022 NOSIG RMK BLU BLU

TAF TAF LKCV
Valide du 03 à 12h jusqu'au 04 à 12h UTC


031100Z 0312/0412 25008KT 9999 BKN030
PROB40
TEMPO 0312/0318 BKN022
PROB40
TEMPO 0313/0316 4000 SN BKN014
BECMG 0403/0405 15007KT
TEMPO 0404/0407 5000 BR



MET'MAP, la Météo Aéronautique d'un coup d'oeil ! - Copyright ORBIFLY Décembre 2007 - Disclaimer

ORBIFLY MET'MAP TEAM :

Programmation & Développement : Alexandra Zaïnal
Sur une idée originale de : Baudouin d'Aumeries
Soutien technique & logistique : Manuel Goepfert
Assistance : Marc-Olivier Méhu




SOURCES & CREDITS :

   NOAA